Time,TemperatureF,DewpointF,PressureIn,WindDirection,WindDirectionDegrees,WindSpeedMPH,WindSpeedGustMPH,Humidity,HourlyPrecipIn,Conditions,Clouds,dailyrainin,SolarRadiationWatts/m^2,SoftwareType,DateUTC
2013-04-16 00:12:00,14.0,12.0,-100.00,East,96,0.0,0.0,90,0.00,,,0.00,0.000000,,2013-04-16 06:12:00,
2013-04-16 00:22:00,14.0,12.0,-100.00,East,96,0.0,0.0,90,0.00,,,0.00,0.000000,,2013-04-16 06:22:00,
2013-04-16 00:32:00,14.0,12.0,-100.00,East,96,0.0,0.0,90,0.00,,,0.00,0.000000,,2013-04-16 06:32:00,
2013-04-16 00:42:00,14.0,12.0,-100.00,East,96,0.0,0.0,90,0.00,,,0.00,0.000000,,2013-04-16 06:42:00,
2013-04-16 00:51:00,14.0,12.0,-100.00,East,96,0.0,0.0,90,0.00,,,0.00,0.000000,,2013-04-16 06:51:00,
2013-04-16 00:52:00,14.0,12.0,-100.00,East,88,0.0,0.0,90,0.00,,,0.00,0.000000,,2013-04-16 06:52:00,
2013-04-16 01:12:00,14.0,12.0,-100.00,East,88,0.0,0.0,90,0.00,,,0.00,0.000000,,2013-04-16 07:12:00,
2013-04-16 01:22:00,14.0,12.0,-100.00,East,88,0.0,0.0,90,0.00,,,0.00,0.000000,,2013-04-16 07:22:00,
2013-04-16 01:32:00,14.0,12.0,-100.00,East,88,0.0,0.0,90,0.00,,,0.00,0.000000,,2013-04-16 07:32:00,
2013-04-16 01:42:00,14.0,12.0,-100.00,East,88,0.0,0.0,90,0.00,,,0.00,0.000000,,2013-04-16 07:42:00,
2013-04-16 02:12:00,14.0,12.0,-100.00,East,100,0.0,0.0,90,0.00,,,0.00,0.000000,,2013-04-16 08:12:00,
2013-04-16 02:22:00,14.0,12.0,-100.00,East,100,0.0,0.0,90,0.00,,,0.00,0.000000,,2013-04-16 08:22:00,
2013-04-16 02:32:00,14.0,12.0,-100.00,East,100,0.0,0.0,90,0.00,,,0.00,0.000000,,2013-04-16 08:32:00,
2013-04-16 02:42:00,14.0,12.0,-100.00,East,100,0.0,0.0,90,0.00,,,0.00,0.000000,,2013-04-16 08:42:00,
2013-04-16 02:51:00,14.0,12.0,-100.00,East,100,0.0,0.0,90,0.00,,,0.00,0.000000,,2013-04-16 08:51:00,
2013-04-16 02:52:00,12.0,9.0,-100.00,East,80,0.0,0.0,89,0.00,,,0.00,0.000000,,2013-04-16 08:52:00,
2013-04-16 03:22:00,12.0,9.0,-100.00,East,80,0.0,0.0,89,0.00,,,0.00,0.000000,,2013-04-16 09:22:00,
2013-04-16 03:32:00,12.0,9.0,-100.00,East,80,0.0,0.0,89,0.00,,,0.00,0.000000,,2013-04-16 09:32:00,
2013-04-16 03:42:00,12.0,9.0,-100.00,East,80,0.0,0.0,89,0.00,,,0.00,0.000000,,2013-04-16 09:42:00,
2013-04-16 03:52:00,12.0,9.0,-100.00,NE,52,0.0,0.0,88,0.00,,,0.00,0.000000,,2013-04-16 09:52:00,
2013-04-16 04:13:00,12.0,9.0,-100.00,NE,52,0.0,0.0,88,0.00,,,0.00,0.000000,,2013-04-16 10:13:00,
2013-04-16 04:22:00,12.0,9.0,-100.00,NE,52,0.0,0.0,88,0.00,,,0.00,0.000000,,2013-04-16 10:22:00,
2013-04-16 04:32:00,12.0,9.0,-100.00,NE,52,0.0,0.0,88,0.00,,,0.00,0.000000,,2013-04-16 10:32:00,
2013-04-16 04:42:00,12.0,9.0,-100.00,NE,52,0.0,0.0,88,0.00,,,0.00,0.000000,,2013-04-16 10:42:00,
2013-04-16 04:52:00,11.0,8.0,-100.00,NE,45,0.0,0.0,88,0.00,,,0.00,0.000000,,2013-04-16 10:52:00,
2013-04-16 05:22:00,11.0,8.0,-100.00,NE,45,0.0,0.0,88,0.00,,,0.00,0.000000,,2013-04-16 11:22:00,
2013-04-16 05:32:00,11.0,8.0,-100.00,NE,45,0.0,0.0,88,0.00,,,0.00,0.000000,,2013-04-16 11:32:00,
2013-04-16 05:42:00,11.0,8.0,-100.00,NE,45,0.0,0.0,88,0.00,,,0.00,0.000000,,2013-04-16 11:42:00,
2013-04-16 06:12:00,11.0,8.0,-100.00,ENE,74,0.0,0.0,87,0.00,,,0.00,0.000000,,2013-04-16 12:12:00,
2013-04-16 06:22:00,11.0,8.0,-100.00,ENE,74,0.0,0.0,87,0.00,,,0.00,0.000000,,2013-04-16 12:22:00,
2013-04-16 06:32:00,11.0,8.0,-100.00,ENE,74,0.0,0.0,87,0.00,,,0.00,0.000000,,2013-04-16 12:32:00,
2013-04-16 06:42:00,11.0,8.0,-100.00,ENE,74,0.0,0.0,87,0.00,,,0.00,0.000000,,2013-04-16 12:42:00,
2013-04-16 06:51:00,11.0,8.0,-100.00,ENE,74,0.0,0.0,87,0.00,,,0.00,0.000000,,2013-04-16 12:51:00,
2013-04-16 06:52:00,10.0,7.0,-100.00,ENE,71,0.0,0.0,87,0.00,,,0.00,3.000000,,2013-04-16 12:52:00,
2013-04-16 07:22:00,10.0,7.0,-100.00,ENE,71,0.0,0.0,87,0.00,,,0.00,3.000000,,2013-04-16 13:22:00,
2013-04-16 07:32:00,10.0,7.0,-100.00,ENE,71,0.0,0.0,87,0.00,,,0.00,3.000000,,2013-04-16 13:32:00,
2013-04-16 07:42:00,10.0,7.0,-100.00,ENE,71,0.0,0.0,87,0.00,,,0.00,3.000000,,2013-04-16 13:42:00,
2013-04-16 08:12:00,10.0,7.0,-100.00,East,85,0.0,0.0,87,0.00,,,-99.99,36.000000,,2013-04-16 14:12:00,
2013-04-16 08:22:00,10.0,7.0,-100.00,East,85,0.0,0.0,87,0.00,,,-99.99,36.000000,,2013-04-16 14:22:00,
2013-04-16 08:32:00,10.0,7.0,-100.00,East,85,0.0,0.0,87,0.00,,,-99.99,36.000000,,2013-04-16 14:32:00,
2013-04-16 08:42:00,10.0,7.0,-100.00,East,85,0.0,0.0,87,0.00,,,-99.99,36.000000,,2013-04-16 14:42:00,
2013-04-16 08:51:00,10.0,7.0,-100.00,East,85,0.0,0.0,87,0.00,,,-99.99,36.000000,,2013-04-16 14:51:00,
2013-04-16 08:52:00,11.0,8.0,-100.00,East,91,0.0,0.0,88,0.00,,,0.00,105.000000,,2013-04-16 14:52:00,
2013-04-16 09:12:00,11.0,8.0,-100.00,East,91,0.0,0.0,88,0.00,,,0.00,105.000000,,2013-04-16 15:12:00,
2013-04-16 09:22:00,11.0,8.0,-100.00,East,91,0.0,0.0,88,0.00,,,0.00,105.000000,,2013-04-16 15:22:00,
2013-04-16 09:32:00,11.0,8.0,-100.00,East,91,0.0,0.0,88,0.00,,,0.00,105.000000,,2013-04-16 15:32:00,
2013-04-16 09:43:00,11.0,8.0,-100.00,East,91,0.0,0.0,88,0.00,,,0.00,105.000000,,2013-04-16 15:43:00,
2013-04-16 09:52:00,13.0,10.0,-100.00,NE,44,0.0,0.0,89,0.00,,,0.00,186.000000,,2013-04-16 15:52:00,
2013-04-16 10:13:00,13.0,10.0,-100.00,NE,44,0.0,0.0,89,0.00,,,0.00,186.000000,,2013-04-16 16:13:00,
2013-04-16 10:23:00,13.0,10.0,-100.00,NE,44,0.0,0.0,89,0.00,,,0.00,186.000000,,2013-04-16 16:23:00,
2013-04-16 10:32:00,13.0,10.0,-100.00,NE,44,0.0,0.0,89,0.00,,,0.00,186.000000,,2013-04-16 16:32:00,
2013-04-16 10:42:00,13.0,10.0,-100.00,NE,44,0.0,0.0,89,0.00,,,0.00,186.000000,,2013-04-16 16:42:00,
2013-04-16 10:52:00,17.0,15.0,-100.00,NNE,32,0.0,0.0,92,0.00,,,0.00,388.000000,,2013-04-16 16:52:00,
2013-04-16 11:22:00,17.0,15.0,-100.00,NNE,32,0.0,0.0,92,0.00,,,0.00,388.000000,,2013-04-16 17:22:00,
2013-04-16 11:32:00,17.0,15.0,-100.00,NNE,32,0.0,0.0,92,0.00,,,0.00,388.000000,,2013-04-16 17:32:00,
2013-04-16 11:43:00,17.0,15.0,-100.00,NNE,32,0.0,0.0,92,0.00,,,0.00,388.000000,,2013-04-16 17:43:00,
2013-04-16 11:52:00,19.0,17.0,-100.00,NE,35,0.0,0.0,93,0.00,,,0.00,319.000000,,2013-04-16 17:52:00,
2013-04-16 12:22:00,19.0,17.0,-100.00,NE,35,0.0,0.0,93,0.00,,,0.00,319.000000,,2013-04-16 18:22:00,
2013-04-16 12:32:00,19.0,17.0,-100.00,NE,35,0.0,0.0,93,0.00,,,0.00,319.000000,,2013-04-16 18:32:00,
2013-04-16 12:42:00,19.0,17.0,-100.00,NE,35,0.0,0.0,93,0.00,,,0.00,319.000000,,2013-04-16 18:42:00,
2013-04-16 12:52:00,21.0,20.0,-100.00,NNE,28,0.0,0.0,95,0.00,,,0.00,655.000000,,2013-04-16 18:52:00,
2013-04-16 13:22:00,21.0,20.0,-100.00,NNE,28,0.0,0.0,95,0.00,,,0.00,655.000000,,2013-04-16 19:22:00,
2013-04-16 13:32:00,21.0,20.0,-100.00,NNE,28,0.0,0.0,95,0.00,,,0.00,655.000000,,2013-04-16 19:32:00,
2013-04-16 14:12:00,16.0,13.0,-100.00,NNE,29,0.0,0.0,88,0.00,,,0.00,545.000000,,2013-04-16 20:12:00,
2013-04-16 14:22:00,16.0,13.0,-100.00,NNE,29,0.0,0.0,88,0.00,,,0.00,545.000000,,2013-04-16 20:22:00,
2013-04-16 14:32:00,16.0,13.0,-100.00,NNE,29,0.0,0.0,88,0.00,,,0.00,545.000000,,2013-04-16 20:32:00,
2013-04-16 14:42:00,16.0,13.0,-100.00,NNE,29,0.0,0.0,88,0.00,,,0.00,545.000000,,2013-04-16 20:42:00,
2013-04-16 14:51:00,16.0,13.0,-100.00,NNE,29,0.0,0.0,88,0.00,,,0.00,545.000000,,2013-04-16 20:51:00,
2013-04-16 14:52:00,17.0,14.0,-100.00,NNE,28,0.0,0.0,86,0.00,,,0.00,624.000000,,2013-04-16 20:52:00,
2013-04-16 15:22:00,17.0,14.0,-100.00,NNE,28,0.0,0.0,86,0.00,,,0.00,624.000000,,2013-04-16 21:22:00,
2013-04-16 15:32:00,17.0,14.0,-100.00,NNE,28,0.0,0.0,86,0.00,,,0.00,624.000000,,2013-04-16 21:32:00,
2013-04-16 15:42:00,17.0,14.0,-100.00,NNE,28,0.0,0.0,86,0.00,,,0.00,624.000000,,2013-04-16 21:42:00,
2013-04-16 15:52:00,19.0,16.0,-100.00,NE,45,0.0,0.0,87,0.00,,,0.00,569.000000,,2013-04-16 21:52:00,
2013-04-16 16:22:00,19.0,16.0,-100.00,NE,45,0.0,0.0,87,0.00,,,0.00,569.000000,,2013-04-16 22:22:00,
2013-04-16 16:32:00,19.0,16.0,-100.00,NE,45,0.0,0.0,87,0.00,,,0.00,569.000000,,2013-04-16 22:32:00,
2013-04-16 16:42:00,19.0,16.0,-100.00,NE,45,0.0,0.0,87,0.00,,,0.00,569.000000,,2013-04-16 22:42:00,
2013-04-16 16:52:00,17.0,14.0,-100.00,NE,51,0.0,0.0,86,0.00,,,0.00,443.000000,,2013-04-16 22:52:00,
2013-04-16 17:22:00,17.0,14.0,-100.00,NE,51,0.0,0.0,86,0.00,,,0.00,443.000000,,2013-04-16 23:22:00,
2013-04-16 17:32:00,17.0,14.0,-100.00,NE,51,0.0,0.0,86,0.00,,,0.00,443.000000,,2013-04-16 23:32:00,
2013-04-16 17:42:00,17.0,14.0,-100.00,NE,51,0.0,0.0,86,0.00,,,0.00,443.000000,,2013-04-16 23:42:00,
2013-04-16 17:52:00,17.0,14.0,-100.00,NE,40,0.0,0.0,87,0.00,,,0.00,288.000000,,2013-04-16 23:52:00,
2013-04-16 18:12:00,17.0,14.0,-100.00,NE,40,0.0,0.0,87,0.00,,,0.00,288.000000,,2013-04-17 00:12:00,
2013-04-16 18:22:00,17.0,14.0,-100.00,NE,40,0.0,0.0,87,0.00,,,0.00,288.000000,,2013-04-17 00:22:00,
2013-04-16 18:32:00,17.0,14.0,-100.00,NE,40,0.0,0.0,87,0.00,,,0.00,288.000000,,2013-04-17 00:32:00,
2013-04-16 18:42:00,17.0,14.0,-100.00,NE,40,0.0,0.0,87,0.00,,,0.00,288.000000,,2013-04-17 00:42:00,
2013-04-16 18:52:00,16.0,13.0,-100.00,ESE,121,0.0,0.0,87,0.00,,,0.00,180.000000,,2013-04-17 00:52:00,
2013-04-16 19:12:00,16.0,13.0,-100.00,ESE,121,0.0,0.0,87,0.00,,,0.00,180.000000,,2013-04-17 01:12:00,
2013-04-16 19:22:00,16.0,13.0,-100.00,ESE,121,0.0,0.0,87,0.00,,,0.00,180.000000,,2013-04-17 01:22:00,
2013-04-16 19:32:00,16.0,13.0,-100.00,ESE,121,0.0,0.0,87,0.00,,,0.00,180.000000,,2013-04-17 01:32:00,
2013-04-16 19:42:00,16.0,13.0,-100.00,ESE,121,0.0,0.0,87,0.00,,,0.00,180.000000,,2013-04-17 01:42:00,
2013-04-16 19:52:00,12.0,9.0,-100.00,NNE,18,0.0,0.0,87,0.00,,,0.00,60.000000,,2013-04-17 01:52:00,
2013-04-16 20:22:00,12.0,9.0,-100.00,NNE,18,0.0,0.0,87,0.00,,,0.00,60.000000,,2013-04-17 02:22:00,
2013-04-16 20:32:00,12.0,9.0,-100.00,NNE,18,0.0,0.0,87,0.00,,,0.00,60.000000,,2013-04-17 02:32:00,
2013-04-16 20:42:00,12.0,9.0,-100.00,NNE,18,0.0,0.0,87,0.00,,,0.00,60.000000,,2013-04-17 02:42:00,
2013-04-16 20:52:00,12.0,9.0,-100.00,NNE,24,0.0,0.0,88,0.00,,,0.00,2.000000,,2013-04-17 02:52:00,
2013-04-16 21:12:00,12.0,9.0,-100.00,NNE,24,0.0,0.0,88,0.00,,,0.00,2.000000,,2013-04-17 03:12:00,
2013-04-16 21:22:00,12.0,9.0,-100.00,NNE,24,0.0,0.0,88,0.00,,,0.00,2.000000,,2013-04-17 03:22:00,
2013-04-16 21:32:00,12.0,9.0,-100.00,NNE,24,0.0,0.0,88,0.00,,,0.00,2.000000,,2013-04-17 03:32:00,
2013-04-16 21:42:00,12.0,9.0,-100.00,NNE,24,0.0,0.0,88,0.00,,,0.00,2.000000,,2013-04-17 03:42:00,
2013-04-16 21:52:00,12.0,9.0,-100.00,North,9,0.0,0.0,88,0.00,,,0.00,0.000000,,2013-04-17 03:52:00,
2013-04-16 22:22:00,12.0,9.0,-100.00,North,9,0.0,0.0,88,0.00,,,0.00,0.000000,,2013-04-17 04:22:00,
2013-04-16 22:33:00,12.0,9.0,-100.00,North,9,0.0,0.0,88,0.00,,,0.00,0.000000,,2013-04-17 04:33:00,
2013-04-16 22:42:00,12.0,9.0,-100.00,North,9,0.0,0.0,88,0.00,,,0.00,0.000000,,2013-04-17 04:42:00,
2013-04-16 22:52:00,11.0,8.0,-100.00,East,80,0.0,0.0,87,0.00,,,0.00,0.000000,,2013-04-17 04:52:00,
2013-04-16 23:22:00,11.0,8.0,-100.00,East,80,0.0,0.0,87,0.00,,,0.00,0.000000,,2013-04-17 05:22:00,
2013-04-16 23:32:00,11.0,8.0,-100.00,East,80,0.0,0.0,87,0.00,,,0.00,0.000000,,2013-04-17 05:32:00,
2013-04-16 23:42:00,11.0,8.0,-100.00,East,80,0.0,0.0,87,0.00,,,0.00,0.000000,,2013-04-17 05:42:00,